createdAt,value
2023-01-01T00:01:41.484Z,21.55
2023-01-01T00:04:12.731Z,22.08
2023-01-01T00:06:40.703Z,23.25
2023-01-01T00:09:30.009Z,23.67
2023-01-01T00:11:57.599Z,24.70
2023-01-01T00:14:24.543Z,25.20
2023-01-01T00:17:00.333Z,26.85
2023-01-01T00:19:27.583Z,21.25
2023-01-01T00:21:57.650Z,23.38
2023-01-01T00:24:24.620Z,31.83
2023-01-01T00:26:51.568Z,21.35
2023-01-01T00:29:19.437Z,18.30
2023-01-01T00:31:52.711Z,27.38
2023-01-01T00:34:25.378Z,23.25
2023-01-01T00:36:53.333Z,30.73
2023-01-01T00:39:20.200Z,17.55
2023-01-01T00:41:47.118Z,28.08
2023-01-01T00:44:14.139Z,20.17
2023-01-01T00:46:47.049Z,15.68
2023-01-01T00:49:14.178Z,25.55
2023-01-01T00:51:41.126Z,19.23
2023-01-01T00:54:26.981Z,18.05
2023-01-01T00:59:38.055Z,23.73
2023-01-01T01:02:05.187Z,20.25
2023-01-01T01:04:32.389Z,16.95
2023-01-01T01:06:59.352Z,18.17
2023-01-01T01:09:26.305Z,20.63
2023-01-01T01:12:17.867Z,25.02
2023-01-01T01:14:41.617Z,28.23
2023-01-01T01:17:08.681Z,19.60
2023-01-01T01:19:35.860Z,22.13
2023-01-01T01:22:03.046Z,20.58
2023-01-01T01:24:48.803Z,19.60
2023-01-01T01:27:15.910Z,19.13
2023-01-01T01:29:42.889Z,18.25
2023-01-01T01:32:11.934Z,24.00
2023-01-01T01:34:39.068Z,17.15
2023-01-01T01:37:12.157Z,21.25
2023-01-01T01:39:39.482Z,20.02
2023-01-01T01:42:07.330Z,22.98
2023-01-01T01:47:47.625Z,18.10
2023-01-01T01:50:38.079Z,16.80
2023-01-01T01:53:29.875Z,16.95
2023-01-01T01:56:01.550Z,17.02
2023-01-01T01:58:30.952Z,25.15
2023-01-01T02:00:58.353Z,16.67
2023-01-01T02:03:40.461Z,19.13
2023-01-01T02:06:07.751Z,16.35
2023-01-01T02:08:35.839Z,20.23
2023-01-01T02:11:02.878Z,20.83
2023-01-01T02:13:30.569Z,20.55
2023-01-01T02:16:04.806Z,22.67
2023-01-01T02:18:45.128Z,22.58
2023-01-01T02:21:20.040Z,21.85
2023-01-01T02:23:58.845Z,22.20
2023-01-01T02:26:46.320Z,22.02
2023-01-01T02:29:38.620Z,18.13
2023-01-01T02:32:21.409Z,21.25
2023-01-01T02:34:58.265Z,22.38
2023-01-01T02:37:28.645Z,18.73
2023-01-01T02:39:58.768Z,22.52
2023-01-01T02:42:29.199Z,18.40
2023-01-01T02:44:58.478Z,21.80
2023-01-01T02:47:44.771Z,19.80
2023-01-01T02:50:14.264Z,18.92
2023-01-01T02:53:18.709Z,22.47
2023-01-01T02:56:08.446Z,23.58
2023-01-01T02:59:08.451Z,23.05
2023-01-01T03:05:08.697Z,26.15
2023-01-01T03:07:57.822Z,22.85
2023-01-01T03:10:37.119Z,23.60
2023-01-01T03:13:29.676Z,26.33
2023-01-01T03:16:10.368Z,23.80
2023-01-01T03:18:49.080Z,22.52
2023-01-01T03:21:22.371Z,19.20
2023-01-01T03:23:55.020Z,20.90
2023-01-01T03:26:24.029Z,16.33
2023-01-01T03:28:57.756Z,19.70
2023-01-01T03:31:27.204Z,17.90
2023-01-01T03:34:13.474Z,28.75
2023-01-01T03:36:46.403Z,28.58
2023-01-01T03:39:20.523Z,21.88
2023-01-01T03:41:58.683Z,18.73
2023-01-01T03:44:36.155Z,22.05
2023-01-01T03:47:05.175Z,22.23
2023-01-01T03:49:33.302Z,18.10
2023-01-01T03:52:19.241Z,14.82
2023-01-01T03:54:58.493Z,21.60
2023-01-01T03:57:56.294Z,18.35
2023-01-01T04:00:35.195Z,18.83
2023-01-01T04:03:41.773Z,20.17
2023-01-01T04:06:11.715Z,16.90
2023-01-01T04:08:39.881Z,21.35
2023-01-01T04:11:34.684Z,20.17
2023-01-01T04:14:05.971Z,19.15
2023-01-01T04:16:34.112Z,17.75
2023-01-01T04:19:00.987Z,17.73
2023-01-01T04:21:28.218Z,16.75
2023-01-01T04:23:55.175Z,16.17
2023-01-01T04:26:22.242Z,17.83
2023-01-01T04:29:08.054Z,22.52
2023-01-01T04:31:35.582Z,14.82
2023-01-01T04:34:02.515Z,21.10
2023-01-01T04:36:29.574Z,13.27
2023-01-01T04:39:15.364Z,23.30
2023-01-01T04:41:42.299Z,13.50
2023-01-01T04:44:09.986Z,17.60
2023-01-01T04:46:36.956Z,16.50
2023-01-01T04:49:04.081Z,12.75
2023-01-01T04:51:31.379Z,15.25
2023-01-01T04:54:00.295Z,20.08
2023-01-01T04:56:27.227Z,12.40
2023-01-01T04:58:55.542Z,14.43
2023-01-01T05:01:25.213Z,13.10
2023-01-01T05:03:53.908Z,12.00
2023-01-01T05:06:24.137Z,14.63
2023-01-01T05:08:57.310Z,14.60
2023-01-01T05:11:26.617Z,12.77
2023-01-01T05:13:56.390Z,18.77
2023-01-01T05:16:31.925Z,13.38
2023-01-01T05:19:03.034Z,11.27
2023-01-01T05:21:42.766Z,16.10
2023-01-01T05:24:29.194Z,16.00
2023-01-01T05:26:59.780Z,11.32
2023-01-01T05:29:29.602Z,19.25
2023-01-01T05:32:00.532Z,14.07
2023-01-01T05:36:54.848Z,15.32
2023-01-01T05:39:21.855Z,13.93
2023-01-01T05:41:48.977Z,10.02
2023-01-01T05:44:17.487Z,12.05
2023-01-01T05:46:44.637Z,11.68
2023-01-01T05:49:12.993Z,21.75
2023-01-01T05:54:06.304Z,11.10
2023-01-01T05:56:33.581Z,11.25
2023-01-01T05:59:01.867Z,18.58
2023-01-01T06:01:30.688Z,15.00
2023-01-01T06:03:59.409Z,15.27
2023-01-01T06:06:30.044Z,13.02
2023-01-01T06:09:07.920Z,13.57
2023-01-01T06:11:34.935Z,10.68
2023-01-01T06:14:02.325Z,16.35
2023-01-01T06:16:34.144Z,13.15
2023-01-01T06:19:04.892Z,14.30
2023-01-01T06:21:31.872Z,15.45
2023-01-01T06:24:00.894Z,14.85
2023-01-01T06:26:31.777Z,16.55
2023-01-01T06:29:05.098Z,15.27
2023-01-01T06:31:38.376Z,15.25
2023-01-01T06:34:09.279Z,14.90
2023-01-01T06:36:36.357Z,15.30
2023-01-01T06:39:11.000Z,18.38
2023-01-01T06:44:05.989Z,26.88
2023-01-01T06:46:35.738Z,14.27
2023-01-01T06:49:13.837Z,14.52
2023-01-01T06:51:42.962Z,13.35
2023-01-01T06:54:10.605Z,11.50
2023-01-01T06:56:38.547Z,13.63
2023-01-01T06:59:05.743Z,16.75
2023-01-01T07:01:51.434Z,11.48
2023-01-01T07:04:18.508Z,13.45
2023-01-01T07:06:45.553Z,10.60
2023-01-01T07:09:12.948Z,13.75
2023-01-01T07:11:39.914Z,10.63
2023-01-01T07:14:06.859Z,13.43
2023-01-01T07:16:33.899Z,14.57
2023-01-01T07:19:01.418Z,12.38
2023-01-01T07:21:34.296Z,12.18
2023-01-01T07:24:03.892Z,33.08
2023-01-01T07:26:32.551Z,12.88
2023-01-01T07:29:08.429Z,15.98
2023-01-01T07:31:38.276Z,20.67
2023-01-01T07:34:17.372Z,11.95
2023-01-01T07:36:44.527Z,13.98
2023-01-01T07:39:11.541Z,15.63
2023-01-01T07:41:38.676Z,14.48
2023-01-01T07:44:05.796Z,18.95
2023-01-01T07:46:35.737Z,15.65
2023-01-01T07:49:03.569Z,18.88
2023-01-01T07:51:30.531Z,20.45
2023-01-01T07:54:03.895Z,16.88
2023-01-01T07:56:34.847Z,17.67
2023-01-01T07:59:20.739Z,19.42
2023-01-01T08:01:48.053Z,15.38
2023-01-01T08:04:15.020Z,22.05
2023-01-01T08:06:41.989Z,23.10
2023-01-01T08:09:10.276Z,16.85
2023-01-01T08:11:37.199Z,20.05
2023-01-01T08:14:23.123Z,20.30
2023-01-01T08:16:50.223Z,15.02
2023-01-01T08:19:17.259Z,19.58
2023-01-01T08:21:44.317Z,16.40
2023-01-01T08:24:11.408Z,18.15
2023-01-01T08:26:39.885Z,21.85
2023-01-01T08:29:07.315Z,23.25
2023-01-01T08:31:34.553Z,20.95
2023-01-01T08:34:01.567Z,18.73
2023-01-01T08:36:34.340Z,19.55
2023-01-01T08:39:01.536Z,15.60
2023-01-01T08:41:28.416Z,20.00
2023-01-01T08:43:55.377Z,19.10
2023-01-01T08:46:27.877Z,12.73
2023-01-01T08:48:55.085Z,15.30
2023-01-01T08:51:22.001Z,16.63
2023-01-01T08:53:51.549Z,16.60
2023-01-01T08:56:19.019Z,21.00
2023-01-01T08:59:04.760Z,14.70
2023-01-01T09:01:31.962Z,12.05
2023-01-01T09:04:02.690Z,13.15
2023-01-01T09:06:33.868Z,14.90
2023-01-01T09:09:00.803Z,21.45
2023-01-01T09:11:28.637Z,21.48
2023-01-01T09:13:55.618Z,13.13
2023-01-01T09:16:23.435Z,17.23
2023-01-01T09:18:50.475Z,17.75
2023-01-01T09:21:17.855Z,13.68
2023-01-01T09:23:44.926Z,13.55
2023-01-01T09:26:11.921Z,12.60
2023-01-01T09:28:39.097Z,14.02
2023-01-01T09:31:06.567Z,18.17
2023-01-01T09:33:34.623Z,15.70
2023-01-01T09:36:20.921Z,18.35
2023-01-01T09:38:54.554Z,21.42
2023-01-01T09:41:44.115Z,18.55
2023-01-01T09:44:17.084Z,15.98
2023-01-01T09:46:44.402Z,18.23
2023-01-01T09:49:59.684Z,15.10
2023-01-01T09:52:36.427Z,22.17
2023-01-01T09:55:15.681Z,17.00
2023-01-01T09:57:42.706Z,21.88
2023-01-01T10:00:17.514Z,15.45
2023-01-01T10:02:56.425Z,19.70
2023-01-01T10:05:29.095Z,14.60
2023-01-01T10:08:07.041Z,19.02
2023-01-01T10:10:50.244Z,20.88
2023-01-01T10:13:23.068Z,22.33
2023-01-01T10:16:08.991Z,22.65
2023-01-01T10:18:39.156Z,15.32
2023-01-01T10:21:20.102Z,20.75
2023-01-01T10:24:36.079Z,17.27
2023-01-01T10:27:06.087Z,21.92
2023-01-01T10:29:47.200Z,17.33
2023-01-01T10:32:26.601Z,16.33
2023-01-01T10:34:53.793Z,18.98
2023-01-01T10:37:21.691Z,20.35
2023-01-01T10:39:49.334Z,23.67
2023-01-01T10:42:17.200Z,25.35
2023-01-01T10:44:45.125Z,20.00
2023-01-01T10:47:18.094Z,18.17
2023-01-01T10:50:07.624Z,15.25
2023-01-01T10:52:42.959Z,18.77
2023-01-01T10:55:21.772Z,17.42
2023-01-01T10:57:48.902Z,14.95
2023-01-01T11:00:23.950Z,19.73
2023-01-01T11:03:21.210Z,20.60
2023-01-01T11:06:02.006Z,23.00
2023-01-01T11:08:31.826Z,24.33
2023-01-01T11:11:00.886Z,15.63
2023-01-01T11:13:29.907Z,19.02
2023-01-01T11:16:15.659Z,23.52
2023-01-01T11:21:27.396Z,29.42
2023-01-01T11:24:12.346Z,19.08
2023-01-01T11:26:39.289Z,26.13
2023-01-01T11:29:22.750Z,20.70
2023-01-01T11:31:49.937Z,18.52
2023-01-01T11:34:30.726Z,25.02
2023-01-01T11:37:36.249Z,18.25
2023-01-01T11:42:37.341Z,28.75
2023-01-01T11:45:32.934Z,20.88
2023-01-01T11:48:10.988Z,20.13
2023-01-01T11:50:53.630Z,22.33
2023-01-01T11:53:24.537Z,20.80
2023-01-01T11:56:00.272Z,30.02
2023-01-01T11:58:38.705Z,23.67
2023-01-01T12:04:40.681Z,19.33
2023-01-01T12:07:38.843Z,30.13
2023-01-01T12:14:16.583Z,35.67
2023-01-01T12:21:52.467Z,17.35
2023-01-01T12:24:33.925Z,26.90
2023-01-01T12:27:28.472Z,19.95
2023-01-01T12:30:01.798Z,23.75
2023-01-01T12:32:44.079Z,23.85
2023-01-01T12:35:32.489Z,34.08
2023-01-01T12:38:14.437Z,22.90
2023-01-01T12:40:53.230Z,28.58
2023-01-01T12:43:34.102Z,30.00
2023-01-01T12:46:33.167Z,23.92
2023-01-01T12:49:35.467Z,24.70
2023-01-01T12:52:14.791Z,25.48
2023-01-01T12:55:19.535Z,29.50
2023-01-01T12:58:31.088Z,27.63
2023-01-01T13:04:47.901Z,24.08
2023-01-01T13:07:17.241Z,23.73
2023-01-01T13:09:45.984Z,18.38
2023-01-01T13:12:16.966Z,29.42
2023-01-01T13:18:13.735Z,21.85
2023-01-01T13:20:44.210Z,29.02
2023-01-01T13:23:33.533Z,25.77
2023-01-01T13:26:37.444Z,27.00
2023-01-01T13:29:05.667Z,32.05
2023-01-01T13:31:39.886Z,33.00
2023-01-01T13:34:48.004Z,32.28
2023-01-01T13:37:14.855Z,37.95
2023-01-01T13:40:13.512Z,21.35
2023-01-01T13:42:44.914Z,32.13
2023-01-01T13:46:13.598Z,22.23
2023-01-01T13:49:23.378Z,29.50
2023-01-01T13:52:07.835Z,31.17
2023-01-01T13:54:45.128Z,25.55
2023-01-01T13:57:31.051Z,27.70
2023-01-01T14:00:04.700Z,23.90
2023-01-01T14:03:08.170Z,29.48
2023-01-01T14:08:11.563Z,25.95
2023-01-01T14:10:40.288Z,29.50
2023-01-01T14:13:07.477Z,25.73
2023-01-01T14:15:37.775Z,31.48
2023-01-01T14:18:11.297Z,35.10
2023-01-01T14:20:44.663Z,28.70
2023-01-01T14:23:26.453Z,29.50
2023-01-01T14:25:59.467Z,40.17
2023-01-01T14:28:34.764Z,28.30
2023-01-01T14:31:44.005Z,45.45
2023-01-01T14:34:27.264Z,21.45
2023-01-01T14:37:25.999Z,30.05
2023-01-01T14:43:10.605Z,34.03
2023-01-01T14:45:43.438Z,32.00
2023-01-01T14:52:38.713Z,28.00
2023-01-01T14:55:08.439Z,17.38
2023-01-01T15:00:34.098Z,28.08
2023-01-01T15:03:59.474Z,24.70
2023-01-01T15:09:20.357Z,27.17
2023-01-01T15:11:55.540Z,24.83
2023-01-01T15:14:39.375Z,28.02
2023-01-01T15:17:15.020Z,35.53
2023-01-01T15:19:47.140Z,22.45
2023-01-01T15:22:32.766Z,27.08
2023-01-01T15:25:00.639Z,32.50
2023-01-01T15:27:30.329Z,30.80
2023-01-01T15:30:02.893Z,28.45
2023-01-01T15:32:38.754Z,25.00
2023-01-01T15:38:05.032Z,24.92
2023-01-01T15:40:35.869Z,32.22
2023-01-01T15:43:02.656Z,27.17
2023-01-01T15:45:31.043Z,23.45
2023-01-01T15:48:13.743Z,26.88
2023-01-01T15:51:27.135Z,20.58
2023-01-01T16:01:21.819Z,18.23
2023-01-01T16:03:52.451Z,24.73
2023-01-01T16:06:21.849Z,46.80
2023-01-01T16:09:08.859Z,37.55
2023-01-01T16:11:36.142Z,22.88
2023-01-01T16:14:03.237Z,30.58
2023-01-01T16:16:57.210Z,30.23
2023-01-01T16:19:34.222Z,25.08
2023-01-01T16:22:21.441Z,26.75
2023-01-01T16:25:10.425Z,81.53
2023-01-01T16:27:48.522Z,31.77
2023-01-01T16:33:25.860Z,33.42
2023-01-01T16:35:55.743Z,38.80
2023-01-01T16:41:08.888Z,34.73
2023-01-01T16:43:36.147Z,25.92
2023-01-01T16:46:09.896Z,42.35
2023-01-01T16:48:43.014Z,33.63
2023-01-01T16:51:22.980Z,26.85
2023-01-01T16:54:00.820Z,32.13
2023-01-01T16:56:53.116Z,44.83
2023-01-01T16:59:24.539Z,39.00
2023-01-01T17:01:53.914Z,31.48
2023-01-01T17:04:22.278Z,36.03
2023-01-01T17:06:49.598Z,35.10
2023-01-01T17:09:22.299Z,35.80
2023-01-01T17:12:07.660Z,39.72
2023-01-01T17:14:34.755Z,38.75
2023-01-01T17:17:27.581Z,37.55
2023-01-01T17:19:58.845Z,35.38
2023-01-01T17:22:30.667Z,36.67
2023-01-01T17:25:01.121Z,38.13
2023-01-01T17:27:28.159Z,41.15
2023-01-01T17:29:55.511Z,39.10
2023-01-01T17:32:22.627Z,35.00
2023-01-01T17:34:49.819Z,39.88
2023-01-01T17:37:17.332Z,40.95
2023-01-01T17:39:44.286Z,32.95
2023-01-01T17:42:11.159Z,41.85
2023-01-01T17:44:39.571Z,29.00
2023-01-01T17:47:07.357Z,36.75
2023-01-01T17:50:00.242Z,34.65
2023-01-01T17:52:27.441Z,30.70
2023-01-01T17:54:57.590Z,35.45
2023-01-01T17:57:25.459Z,35.97
2023-01-01T17:59:52.677Z,39.95
2023-01-01T18:02:19.700Z,33.58
2023-01-01T18:04:48.252Z,35.47
2023-01-01T18:07:15.180Z,31.70
2023-01-01T18:09:42.154Z,29.83
2023-01-01T18:12:09.506Z,37.92
2023-01-01T18:17:32.239Z,31.08
2023-01-01T18:20:20.783Z,35.65
2023-01-01T18:23:05.830Z,42.85
2023-01-01T18:25:32.923Z,32.63
2023-01-01T18:33:35.127Z,36.47
2023-01-01T18:39:42.004Z,31.73
2023-01-01T18:42:42.028Z,32.35
2023-01-01T18:45:17.156Z,29.27
2023-01-01T18:47:49.873Z,37.10
2023-01-01T18:50:19.865Z,38.22
2023-01-01T18:52:47.817Z,37.72
2023-01-01T18:56:26.530Z,40.75
2023-01-01T18:58:57.164Z,35.10
2023-01-01T19:04:13.498Z,37.35
2023-01-01T19:06:40.420Z,41.03
2023-01-01T19:09:18.446Z,43.15
2023-01-01T19:12:06.932Z,37.70
2023-01-01T19:14:33.815Z,37.97
2023-01-01T19:17:02.495Z,45.17
2023-01-01T19:19:39.023Z,39.50
2023-01-01T19:22:31.324Z,38.00
2023-01-01T19:25:03.310Z,42.70
2023-01-01T19:27:34.162Z,35.72
2023-01-01T19:30:02.208Z,41.35
2023-01-01T19:32:29.241Z,41.85
2023-01-01T19:35:02.826Z,36.63
2023-01-01T19:37:29.791Z,38.20
2023-01-01T19:39:56.677Z,36.75
2023-01-01T19:45:42.417Z,38.00
2023-01-01T19:48:09.411Z,37.70
2023-01-01T19:50:36.355Z,36.83
2023-01-01T19:53:03.239Z,44.15
2023-01-01T19:55:30.799Z,35.30
2023-01-01T19:57:57.846Z,32.60
2023-01-01T20:00:27.608Z,43.53
2023-01-01T20:03:18.937Z,37.50
2023-01-01T20:06:10.702Z,51.45
2023-01-01T20:08:38.606Z,44.45
2023-01-01T20:11:07.006Z,37.92
2023-01-01T20:13:34.742Z,42.20
2023-01-01T20:16:03.135Z,39.70
2023-01-01T20:18:30.479Z,38.00
2023-01-01T20:21:25.293Z,37.65
2023-01-01T20:23:53.303Z,37.28
2023-01-01T20:26:23.695Z,43.00
2023-01-01T20:29:13.241Z,34.97
2023-01-01T20:34:29.014Z,36.17
2023-01-01T20:37:14.679Z,31.35
2023-01-01T20:39:42.045Z,29.80
2023-01-01T20:42:09.075Z,32.08
2023-01-01T20:44:36.132Z,32.80
2023-01-01T20:47:05.704Z,29.83
2023-01-01T20:49:32.602Z,34.80
2023-01-01T20:51:59.774Z,32.03
2023-01-01T20:54:26.908Z,32.28
2023-01-01T20:56:54.461Z,41.15
2023-01-01T21:02:10.611Z,32.78
2023-01-01T21:04:39.537Z,27.13
2023-01-01T21:07:09.687Z,33.28
2023-01-01T21:09:38.017Z,34.58
2023-01-01T21:12:06.265Z,31.65
2023-01-01T21:14:33.807Z,35.58
2023-01-01T21:17:18.866Z,32.60
2023-01-01T21:19:45.982Z,36.03
2023-01-01T21:22:14.340Z,38.35
2023-01-01T21:24:41.478Z,33.10
2023-01-01T21:27:08.856Z,40.10
2023-01-01T21:29:38.792Z,32.30
2023-01-01T21:32:34.092Z,37.92
2023-01-01T21:35:01.163Z,33.47
2023-01-01T21:37:52.754Z,32.30
2023-01-01T21:40:25.207Z,29.42
2023-01-01T21:43:25.324Z,32.92
2023-01-01T21:45:52.496Z,36.20
2023-01-01T21:48:33.647Z,36.45
2023-01-01T21:51:24.718Z,35.35
2023-01-01T21:53:54.149Z,30.15
2023-01-01T21:56:36.889Z,34.55
2023-01-01T21:59:28.420Z,28.92
2023-01-01T22:02:07.307Z,33.20
2023-01-01T22:04:41.527Z,36.47
2023-01-01T22:10:27.176Z,31.63
2023-01-01T22:13:00.650Z,30.10
2023-01-01T22:15:36.536Z,31.75
2023-01-01T22:18:12.391Z,33.80
2023-01-01T22:20:42.042Z,32.35
2023-01-01T22:23:38.653Z,27.02
2023-01-01T22:26:19.257Z,28.38
2023-01-01T22:28:49.547Z,28.27
2023-01-01T22:31:29.963Z,29.05
2023-01-01T22:34:21.757Z,39.33
2023-01-01T22:36:48.886Z,30.85
2023-01-01T22:39:26.231Z,29.30
2023-01-01T22:41:53.560Z,28.05
2023-01-01T22:44:20.968Z,30.70
2023-01-01T22:46:48.333Z,29.95
2023-01-01T22:49:40.370Z,29.42
2023-01-01T22:52:08.508Z,27.52
2023-01-01T22:54:35.626Z,24.80
2023-01-01T22:57:02.679Z,31.13
2023-01-01T22:59:29.810Z,39.33
2023-01-01T23:05:04.768Z,32.05
2023-01-01T23:07:38.003Z,31.30
2023-01-01T23:10:09.189Z,31.80
2023-01-01T23:12:39.317Z,30.13
2023-01-01T23:15:26.127Z,30.38
2023-01-01T23:17:53.574Z,25.52
2023-01-01T23:20:20.917Z,28.17
2023-01-01T23:22:52.046Z,31.80
2023-01-01T23:25:20.207Z,24.20
2023-01-01T23:27:51.540Z,30.70
2023-01-01T23:30:18.667Z,32.05
2023-01-01T23:32:46.110Z,27.83
2023-01-01T23:35:23.765Z,27.95
2023-01-01T23:37:50.957Z,25.63
2023-01-01T23:43:14.192Z,21.98
2023-01-01T23:45:41.444Z,28.13
2023-01-01T23:48:08.689Z,33.13
2023-01-01T23:50:39.194Z,30.30
2023-01-01T23:53:12.215Z,30.65
2023-01-01T23:55:43.365Z,26.13
2023-01-01T23:58:10.340Z,22.88
